Time;durP1;ratioP1;P1;durP2;ratioP2;P2;SDS_P1;SDS_P2;PMS_P1;PMS_P2;Temp;Humidity;BMP_temperature;BMP_pressure;BME280_temperature;BME280_humidity;BME280_pressure;Samples;Min_cycle;Max_cycle;Signal;HPM_P1;HPM_P2
2022/10/03 00:04:36;;;;;;;37.93;16.13;;;12.40;99.90;;;;;;20912284;28;20262;-79
2022/10/03 00:15:10;;;;;;;21.53;10.70;;;12.50;99.90;;;;;;20911529;28;20275;-78
2022/10/03 00:25:33;;;;;;;22.17;11.23;;;12.40;99.90;;;;;;20911036;28;20211;-78
2022/10/03 00:36:03;;;;;;;16.83;8.53;;;12.40;99.90;;;;;;20925992;28;20633;-72
2022/10/03 00:46:19;;;;;;;22.40;10.17;;;12.40;99.90;;;;;;20925791;28;20602;-70
2022/10/03 00:56:35;;;;;;;14.30;8.87;;;12.40;99.90;;;;;;20925094;28;20274;-71
2022/10/03 01:07:05;;;;;;;12.17;8.67;;;12.10;99.90;;;;;;20924613;28;20243;-78
2022/10/03 01:17:13;;;;;;;15.43;9.07;;;12.10;99.90;;;;;;20923587;28;20263;-77
2022/10/03 01:27:24;;;;;;;16.13;8.90;;;11.90;99.90;;;;;;20923220;28;20232;-77
2022/10/03 01:37:39;;;;;;;11.47;8.20;;;11.80;99.90;;;;;;20948998;28;20204;-75
2022/10/03 01:48:02;;;;;;;15.67;9.00;;;11.70;99.90;;;;;;20934798;28;20236;-78
2022/10/03 01:58:48;;;;;;;24.57;11.40;;;11.50;99.90;;;;;;20920351;28;20213;-72
2022/10/03 02:09:04;;;;;;;13.90;8.27;;;11.50;99.90;;;;;;20917159;28;20703;-70
2022/10/03 02:19:43;;;;;;;15.30;8.70;;;11.30;99.90;;;;;;20919149;28;20278;-79
2022/10/03 02:29:51;;;;;;;11.83;8.13;;;11.30;99.90;;;;;;20917773;28;20234;-72
2022/10/03 02:40:04;;;;;;;14.53;7.47;;;11.20;99.90;;;;;;20917106;28;20668;-79
2022/10/03 02:50:46;;;;;;;13.13;8.00;;;11.20;99.90;;;;;;20916030;28;20753;-78
2022/10/03 03:01:07;;;;;;;12.77;7.63;;;10.90;99.90;;;;;;20915931;28;20228;-70
2022/10/03 03:11:46;;;;;;;12.97;7.77;;;10.90;99.90;;;;;;20915050;28;20334;-78
2022/10/03 03:22:00;;;;;;;11.33;7.80;;;10.70;99.90;;;;;;20914724;28;20682;-76
2022/10/03 03:32:18;;;;;;;13.23;7.97;;;10.70;99.90;;;;;;20913446;28;20277;-70
2022/10/03 03:42:34;;;;;;;12.53;7.87;;;10.70;99.90;;;;;;20912877;28;20260;-77
2022/10/03 03:53:04;;;;;;;13.20;8.00;;;10.70;99.90;;;;;;20941243;28;20343;-79
2022/10/03 04:03:43;;;;;;;9.80;7.40;;;10.60;99.90;;;;;;20918139;28;20212;-79
2022/10/03 04:13:51;;;;;;;21.37;8.13;;;10.50;99.90;;;;;;20928529;28;20287;-75
2022/10/03 04:24:37;;;;;;;10.00;7.80;;;10.40;99.90;;;;;;20927712;28;20212;-79
2022/10/03 04:34:49;;;;;;;11.27;7.10;;;10.30;99.90;;;;;;20901748;28;20266;-69
2022/10/03 04:45:03;;;;;;;10.97;6.50;;;10.30;99.90;;;;;;20926046;28;20227;-78
2022/10/03 04:55:35;;;;;;;8.50;5.97;;;10.10;99.90;;;;;;20925345;28;20245;-80
2022/10/03 05:06:10;;;;;;;126.33;8.53;;;10.00;99.90;;;;;;20925049;28;20216;-79
2022/10/03 05:16:39;;;;;;;43.33;8.40;;;10.00;99.90;;;;;;20921416;28;20216;-79
2022/10/03 05:26:52;;;;;;;21.60;8.37;;;9.80;99.90;;;;;;20925076;28;20791;-78
2022/10/03 05:37:12;;;;;;;28.60;7.57;;;9.80;99.90;;;;;;20922503;28;20260;-78
2022/10/03 05:47:43;;;;;;;11.17;7.23;;;9.70;99.90;;;;;;20921049;28;20272;-80
2022/10/03 05:58:07;;;;;;;16.33;7.43;;;9.60;99.90;;;;;;20920606;28;20212;-77
2022/10/03 06:08:40;;;;;;;66.23;9.40;;;9.60;99.90;;;;;;20919851;28;20234;-70
2022/10/03 06:19:15;;;;;;;60.20;8.17;;;9.50;99.90;;;;;;20918219;28;20218;-79
2022/10/03 06:29:55;;;;;;;26.83;17.60;;;9.70;99.90;;;;;;20916349;28;20313;-79
2022/10/03 06:40:30;;;;;;;29.00;11.00;;;9.90;99.90;;;;;;20904361;28;20213;-73
2022/10/03 06:50:51;;;;;;;28.07;13.07;;;9.90;99.90;;;;;;20915980;28;20249;-78
2022/10/03 07:01:25;;;;;;;23.93;12.07;;;10.30;99.90;;;;;;20915778;28;20245;-80
2022/10/03 07:11:30;;;;;;;19.63;10.30;;;10.40;99.90;;;;;;20915239;28;20236;-78
2022/10/03 07:21:46;;;;;;;18.53;10.33;;;10.70;99.90;;;;;;20914689;28;20262;-78
2022/10/03 07:32:25;;;;;;;17.13;9.53;;;11.10;99.90;;;;;;20913501;28;20691;-79
2022/10/03 07:42:44;;;;;;;15.43;8.20;;;11.70;99.90;;;;;;20912637;28;20209;-79
2022/10/03 07:53:21;;;;;;;16.07;7.20;;;11.90;99.90;;;;;;20912144;28;20251;-77
2022/10/03 08:03:52;;;;;;;16.07;6.33;;;12.50;99.90;;;;;;20912344;28;20210;-79
2022/10/03 08:13:59;;;;;;;11.50;5.03;;;12.60;99.90;;;;;;20911807;28;20268;-78
2022/10/03 08:24:39;;;;;;;11.33;5.10;;;12.80;99.90;;;;;;20911486;28;20286;-79
2022/10/03 08:35:30;;;;;;;10.73;5.17;;;13.10;99.90;;;;;;20911033;28;20243;-75
2022/10/03 08:46:12;;;;;;;7.83;4.93;;;13.60;99.90;;;;;;20894684;28;20229;-76
2022/10/03 08:56:21;;;;;;;12.17;5.10;;;13.80;99.90;;;;;;20923881;28;20208;-70
2022/10/03 09:06:54;;;;;;;10.13;3.83;;;14.00;99.90;;;;;;20930449;28;20236;-71
2022/10/03 09:17:19;;;;;;;8.97;4.27;;;14.20;99.90;;;;;;20944377;28;20573;-78
2022/10/03 09:27:43;;;;;;;8.33;3.47;;;14.30;99.90;;;;;;20930408;28;20243;-80
2022/10/03 09:38:29;;;;;;;10.93;3.43;;;14.70;99.90;;;;;;20922237;28;20551;-78
2022/10/03 09:48:39;;;;;;;5.90;2.80;;;14.90;99.70;;;;;;20921242;28;20231;-76
2022/10/03 09:59:06;;;;;;;9.17;3.37;;;15.00;99.70;;;;;;20920464;28;20211;-72
2022/10/03 10:09:41;;;;;;;6.50;2.70;;;15.20;98.90;;;;;;20919768;28;20247;-79
2022/10/03 10:19:55;;;;;;;6.60;2.60;;;15.20;98.40;;;;;;20919229;28;20219;-79
2022/10/03 10:30:27;;;;;;;7.33;2.80;;;15.10;97.60;;;;;;20918128;28;20242;-80
2022/10/03 10:41:23;;;;;;;13.47;6.10;;;15.40;97.40;;;;;;20917346;28;20268;-78
2022/10/03 10:51:37;;;;;;;13.33;3.90;;;15.80;96.40;;;;;;20915406;28;20707;-76
2022/10/03 11:01:58;;;;;;;11.90;3.57;;;15.80;95.40;;;;;;20915558;28;20206;-75
2022/10/03 11:12:28;;;;;;;10.73;2.63;;;15.60;94.40;;;;;;20914402;28;20239;-77
2022/10/03 11:22:58;;;;;;;8.73;4.20;;;15.70;94.40;;;;;;20914400;28;20661;-79
2022/10/03 11:33:38;;;;;;;7.37;3.10;;;15.80;94.40;;;;;;20913921;28;20237;-77
2022/10/03 11:44:05;;;;;;;4.00;2.10;;;15.80;94.00;;;;;;20912897;28;20621;-78
2022/10/03 11:54:33;;;;;;;6.30;1.97;;;15.90;93.20;;;;;;20912385;28;20231;-78
2022/10/03 12:04:46;;;;;;;12.13;5.27;;;16.00;93.20;;;;;;20912415;28;20230;-74
2022/10/03 12:14:51;;;;;;;3.77;1.80;;;16.50;91.90;;;;;;20911308;28;20231;-77
2022/10/03 12:25:15;;;;;;;5.30;1.77;;;16.60;91.70;;;;;;20916808;28;20261;-78
2022/10/03 12:35:32;;;;;;;5.33;2.00;;;16.40;91.40;;;;;;20927465;28;20725;-78
2022/10/03 12:45:48;;;;;;;5.30;1.90;;;16.20;91.00;;;;;;20926127;28;20243;-78
2022/10/03 12:56:00;;;;;;;3.53;1.63;;;16.10;90.80;;;;;;20925676;28;20234;-77
2022/10/03 13:06:19;;;;;;;8.67;1.67;;;16.10;90.50;;;;;;20925181;28;20658;-78
2022/10/03 13:16:32;;;;;;;8.90;2.37;;;15.90;90.40;;;;;;20924589;28;20223;-70
2022/10/03 13:26:36;;;;;;;5.77;1.70;;;15.90;90.30;;;;;;20923800;28;20831;-77
2022/10/03 13:37:08;;;;;;;4.83;1.83;;;15.90;90.40;;;;;;20921514;28;20255;-77
2022/10/03 13:47:44;;;;;;;3.30;1.70;;;16.00;90.20;;;;;;20919613;28;20237;-78
2022/10/03 13:58:16;;;;;;;3.03;1.50;;;16.10;90.50;;;;;;20908862;28;20215;-79
2022/10/03 14:08:49;;;;;;;5.80;2.20;;;16.40;90.40;;;;;;20910204;28;20309;-75
2022/10/03 14:19:12;;;;;;;6.40;2.20;;;16.50;90.20;;;;;;20919486;28;20219;-76
2022/10/03 14:29:32;;;;;;;3.50;1.70;;;16.60;90.00;;;;;;20931863;28;20246;-78
2022/10/03 14:39:42;;;;;;;7.07;2.30;;;16.40;89.10;;;;;;20936422;28;20211;-79
2022/10/03 14:49:55;;;;;;;5.30;1.80;;;16.30;88.60;;;;;;20916099;28;20301;-78
2022/10/03 15:00:00;;;;;;;4.40;1.87;;;16.80;88.80;;;;;;20916130;28;20219;-80
2022/10/03 15:10:08;;;;;;;12.60;2.40;;;16.90;87.60;;;;;;20915064;28;20233;-79
2022/10/03 15:20:11;;;;;;;6.33;2.27;;;16.70;87.90;;;;;;20914767;28;20219;-71
2022/10/03 15:30:20;;;;;;;4.33;2.37;;;16.50;88.30;;;;;;20913751;28;20687;-74
2022/10/03 15:40:33;;;;;;;8.00;2.53;;;16.20;88.50;;;;;;20912878;28;20208;-71
2022/10/03 15:50:39;;;;;;;6.03;2.50;;;16.00;89.10;;;;;;20912913;28;20271;-70
2022/10/03 16:00:47;;;;;;;7.43;2.80;;;15.90;89.80;;;;;;20912036;28;20698;-70
2022/10/03 16:11:15;;;;;;;9.23;2.83;;;15.80;90.20;;;;;;20911820;28;20234;-70
2022/10/03 16:21:43;;;;;;;5.43;2.43;;;15.80;90.60;;;;;;20911610;28;20211;-70
2022/10/03 16:31:57;;;;;;;8.27;3.10;;;15.70;90.80;;;;;;20911357;28;20286;-71
2022/10/03 16:42:09;;;;;;;8.00;3.50;;;15.50;91.00;;;;;;20910475;28;20291;-71
2022/10/03 16:52:17;;;;;;;5.33;2.70;;;15.50;91.30;;;;;;20910194;28;20246;-72
2022/10/03 17:02:27;;;;;;;5.53;2.70;;;15.20;91.60;;;;;;20910945;28;20214;-71
2022/10/03 17:12:42;;;;;;;9.67;2.70;;;15.20;91.70;;;;;;20918616;28;20254;-76
2022/10/03 17:23:00;;;;;;;6.77;2.90;;;15.10;92.10;;;;;;20923864;28;20204;-76
2022/10/03 17:33:10;;;;;;;7.47;3.30;;;15.00;92.50;;;;;;20923215;28;20324;-76
2022/10/03 17:43:27;;;;;;;7.70;3.43;;;14.80;93.00;;;;;;20922025;28;20210;-77
2022/10/03 17:53:35;;;;;;;14.93;4.00;;;14.70;93.60;;;;;;20920767;28;20291;-77
2022/10/03 18:03:36;;;;;;;11.20;4.30;;;14.60;94.10;;;;;;20919631;28;20203;-77
2022/10/03 18:13:44;;;;;;;9.47;5.57;;;14.50;94.60;;;;;;20939664;28;20825;-76
2022/10/03 18:24:09;;;;;;;10.83;6.30;;;14.60;95.80;;;;;;20929411;28;20288;-77
2022/10/03 18:34:19;;;;;;;10.87;6.40;;;14.30;96.00;;;;;;20998548;28;20763;-77
2022/10/03 18:44:23;;;;;;;12.27;6.70;;;14.10;96.00;;;;;;20997542;28;20308;-77
2022/10/03 18:54:27;;;;;;;14.67;8.37;;;14.00;96.40;;;;;;20996798;28;20295;-75
2022/10/03 19:05:18;;;;;;;14.93;7.50;;;13.90;96.70;;;;;;20995113;28;20214;-78
2022/10/03 19:15:48;;;;;;;19.60;9.37;;;14.00;97.10;;;;;;20952746;28;20234;-78
2022/10/03 19:25:55;;;;;;;13.77;8.30;;;13.90;97.20;;;;;;20922758;28;20224;-77
2022/10/03 19:36:01;;;;;;;15.67;7.47;;;13.80;97.50;;;;;;20910520;28;20234;-77
2022/10/03 19:46:09;;;;;;;15.73;7.97;;;13.80;97.80;;;;;;20910853;28;20235;-73
2022/10/03 19:56:17;;;;;;;17.43;9.27;;;13.70;98.00;;;;;;20911099;28;20597;-74
2022/10/03 20:06:25;;;;;;;14.63;7.10;;;13.70;98.30;;;;;;20925471;28;20576;-73
2022/10/03 20:16:32;;;;;;;21.77;12.57;;;13.60;98.50;;;;;;20913041;28;20235;-79
2022/10/03 20:26:40;;;;;;;16.70;8.73;;;13.30;98.50;;;;;;20911436;28;20591;-78
2022/10/03 20:36:48;;;;;;;28.83;13.07;;;13.20;99.00;;;;;;20910328;28;20241;-79
2022/10/03 20:47:09;;;;;;;19.57;11.83;;;13.10;99.10;;;;;;20915982;28;20710;-75
2022/10/03 20:57:22;;;;;;;23.23;11.13;;;12.80;98.90;;;;;;20925857;28;20690;-73
2022/10/03 21:07:50;;;;;;;16.17;10.17;;;12.60;99.00;;;;;;20925086;28;20231;-73
2022/10/03 21:17:55;;;;;;;21.60;8.80;;;12.60;99.30;;;;;;20924671;28;20210;-72
2022/10/03 21:27:57;;;;;;;18.03;8.50;;;12.40;99.40;;;;;;20923289;28;20231;-79
2022/10/03 21:38:14;;;;;;;19.10;8.30;;;12.20;99.20;;;;;;20922641;28;20570;-78
2022/10/03 21:48:37;;;;;;;16.57;8.27;;;12.00;99.20;;;;;;20922107;28;20624;-74
2022/10/03 21:59:14;;;;;;;18.30;7.97;;;12.00;99.40;;;;;;20920424;28;20204;-73
2022/10/03 22:09:16;;;;;;;16.17;7.50;;;11.90;99.60;;;;;;20920246;28;20729;-72
2022/10/03 22:19:29;;;;;;;19.57;8.10;;;11.70;99.70;;;;;;20919674;28;20213;-79
2022/10/03 22:29:35;;;;;;;18.60;7.80;;;11.70;99.80;;;;;;20918577;28;20756;-79
2022/10/03 22:39:38;;;;;;;18.23;7.40;;;11.50;99.40;;;;;;20917942;28;20239;-80
2022/10/03 22:49:43;;;;;;;13.43;7.70;;;11.40;99.80;;;;;;20917154;28;20280;-76
2022/10/03 22:59:52;;;;;;;15.10;6.87;;;11.40;99.80;;;;;;20916268;28;20541;-76
2022/10/03 23:10:09;;;;;;;14.10;7.37;;;11.20;99.30;;;;;;20914675;28;20629;-78
2022/10/03 23:20:38;;;;;;;17.20;6.73;;;11.10;99.70;;;;;;20914594;28;20729;-72
2022/10/03 23:30:46;;;;;;;11.87;7.03;;;11.10;99.80;;;;;;20914451;28;20642;-77
2022/10/03 23:40:49;;;;;;;16.20;7.10;;;11.00;99.30;;;;;;20913407;28;20205;-73
2022/10/03 23:50:53;;;;;;;14.43;7.20;;;10.80;99.30;;;;;;20912680;28;20698;-73
